sensor_id;sensor_type;location;lat;lon;timestamp;P1;durP1;ratioP1;P2;durP2;ratioP2
5999;SDS011;3028;49.468;7.694;2023-03-21T00:01:25;5.90;;;4.55;;
5999;SDS011;3028;49.468;7.694;2023-03-21T00:03:27;4.78;;;4.43;;
5999;SDS011;3028;49.468;7.694;2023-03-21T00:05:29;4.88;;;4.38;;
5999;SDS011;3028;49.468;7.694;2023-03-21T00:07:31;5.22;;;4.03;;
5999;SDS011;3028;49.468;7.694;2023-03-21T00:09:33;4.55;;;3.80;;
5999;SDS011;3028;49.468;7.694;2023-03-21T00:11:35;4.75;;;4.13;;
5999;SDS011;3028;49.468;7.694;2023-03-21T00:13:37;4.85;;;4.22;;
5999;SDS011;3028;49.468;7.694;2023-03-21T00:15:42;5.97;;;5.47;;
5999;SDS011;3028;49.468;7.694;2023-03-21T00:18:10;11.15;;;10.15;;
5999;SDS011;3028;49.468;7.694;2023-03-21T00:20:12;9.65;;;8.73;;
5999;SDS011;3028;49.468;7.694;2023-03-21T00:22:15;9.40;;;8.60;;
5999;SDS011;3028;49.468;7.694;2023-03-21T00:24:16;7.10;;;6.47;;
5999;SDS011;3028;49.468;7.694;2023-03-21T00:26:18;7.03;;;6.43;;
5999;SDS011;3028;49.468;7.694;2023-03-21T00:28:20;7.30;;;5.13;;
5999;SDS011;3028;49.468;7.694;2023-03-21T00:30:22;6.30;;;4.82;;
5999;SDS011;3028;49.468;7.694;2023-03-21T00:32:24;5.75;;;5.30;;
5999;SDS011;3028;49.468;7.694;2023-03-21T00:34:26;3.90;;;3.60;;
5999;SDS011;3028;49.468;7.694;2023-03-21T00:36:48;3.95;;;3.55;;
5999;SDS011;3028;49.468;7.694;2023-03-21T00:38:50;3.15;;;2.78;;
5999;SDS011;3028;49.468;7.694;2023-03-21T00:40:54;3.58;;;3.25;;
5999;SDS011;3028;49.468;7.694;2023-03-21T00:43:00;3.35;;;3.05;;
5999;SDS011;3028;49.468;7.694;2023-03-21T00:45:02;3.25;;;3.03;;
5999;SDS011;3028;49.468;7.694;2023-03-21T00:47:05;2.83;;;2.58;;
5999;SDS011;3028;49.468;7.694;2023-03-21T00:49:08;4.93;;;2.22;;
5999;SDS011;3028;49.468;7.694;2023-03-21T00:51:11;3.45;;;3.15;;
5999;SDS011;3028;49.468;7.694;2023-03-21T00:53:15;6.68;;;2.50;;
5999;SDS011;3028;49.468;7.694;2023-03-21T00:55:17;4.47;;;2.97;;
5999;SDS011;3028;49.468;7.694;2023-03-21T00:57:20;4.10;;;3.00;;
5999;SDS011;3028;49.468;7.694;2023-03-21T00:59:38;3.70;;;2.90;;
5999;SDS011;3028;49.468;7.694;2023-03-21T01:01:40;5.47;;;2.95;;
5999;SDS011;3028;49.468;7.694;2023-03-21T01:03:42;3.65;;;3.33;;
5999;SDS011;3028;49.468;7.694;2023-03-21T01:05:51;4.35;;;2.92;;
5999;SDS011;3028;49.468;7.694;2023-03-21T01:08:06;4.97;;;3.17;;
5999;SDS011;3028;49.468;7.694;2023-03-21T01:10:24;2.55;;;2.03;;
5999;SDS011;3028;49.468;7.694;2023-03-21T01:12:25;2.60;;;2.40;;
5999;SDS011;3028;49.468;7.694;2023-03-21T01:14:28;4.10;;;2.17;;
5999;SDS011;3028;49.468;7.694;2023-03-21T01:16:30;3.08;;;2.78;;
5999;SDS011;3028;49.468;7.694;2023-03-21T01:18:32;9.27;;;2.83;;
5999;SDS011;3028;49.468;7.694;2023-03-21T01:20:35;3.58;;;2.78;;
5999;SDS011;3028;49.468;7.694;2023-03-21T01:22:37;4.10;;;2.88;;
5999;SDS011;3028;49.468;7.694;2023-03-21T01:24:39;3.25;;;2.47;;
5999;SDS011;3028;49.468;7.694;2023-03-21T01:26:53;3.30;;;2.42;;
5999;SDS011;3028;49.468;7.694;2023-03-21T01:28:54;4.20;;;2.50;;
5999;SDS011;3028;49.468;7.694;2023-03-21T01:31:00;3.72;;;3.00;;
5999;SDS011;3028;49.468;7.694;2023-03-21T01:33:03;4.03;;;2.67;;
5999;SDS011;3028;49.468;7.694;2023-03-21T01:35:04;4.05;;;2.53;;
5999;SDS011;3028;49.468;7.694;2023-03-21T01:37:07;4.68;;;3.50;;
5999;SDS011;3028;49.468;7.694;2023-03-21T01:39:08;4.35;;;2.92;;
5999;SDS011;3028;49.468;7.694;2023-03-21T01:41:16;3.83;;;2.50;;
5999;SDS011;3028;49.468;7.694;2023-03-21T01:43:24;5.38;;;2.33;;
5999;SDS011;3028;49.468;7.694;2023-03-21T01:48:05;3.95;;;2.47;;
5999;SDS011;3028;49.468;7.694;2023-03-21T01:50:06;3.95;;;3.00;;
5999;SDS011;3028;49.468;7.694;2023-03-21T01:52:09;2.65;;;2.30;;
5999;SDS011;3028;49.468;7.694;2023-03-21T01:54:25;2.90;;;2.45;;
5999;SDS011;3028;49.468;7.694;2023-03-21T01:56:30;2.78;;;1.83;;
5999;SDS011;3028;49.468;7.694;2023-03-21T01:58:34;3.03;;;2.58;;
5999;SDS011;3028;49.468;7.694;2023-03-21T02:00:39;3.30;;;2.33;;
5999;SDS011;3028;49.468;7.694;2023-03-21T02:02:42;4.72;;;2.92;;
5999;SDS011;3028;49.468;7.694;2023-03-21T02:04:52;8.63;;;2.65;;
5999;SDS011;3028;49.468;7.694;2023-03-21T02:07:11;3.10;;;2.50;;
5999;SDS011;3028;49.468;7.694;2023-03-21T02:09:16;3.92;;;2.42;;
5999;SDS011;3028;49.468;7.694;2023-03-21T02:11:20;5.78;;;2.45;;
5999;SDS011;3028;49.468;7.694;2023-03-21T02:13:25;2.15;;;1.80;;
5999;SDS011;3028;49.468;7.694;2023-03-21T02:15:27;3.92;;;2.72;;
5999;SDS011;3028;49.468;7.694;2023-03-21T02:24:39;3.60;;;2.75;;
5999;SDS011;3028;49.468;7.694;2023-03-21T02:27:22;3.45;;;2.25;;
5999;SDS011;3028;49.468;7.694;2023-03-21T02:37:49;5.00;;;3.30;;
5999;SDS011;3028;49.468;7.694;2023-03-21T02:44:48;4.55;;;3.55;;
5999;SDS011;3028;49.468;7.694;2023-03-21T02:46:56;5.47;;;3.03;;
5999;SDS011;3028;49.468;7.694;2023-03-21T02:49:08;3.40;;;3.10;;
5999;SDS011;3028;49.468;7.694;2023-03-21T02:51:17;3.58;;;2.85;;
5999;SDS011;3028;49.468;7.694;2023-03-21T02:53:22;3.33;;;3.03;;
5999;SDS011;3028;49.468;7.694;2023-03-21T02:55:26;4.28;;;3.17;;
5999;SDS011;3028;49.468;7.694;2023-03-21T02:57:31;3.65;;;2.95;;
5999;SDS011;3028;49.468;7.694;2023-03-21T02:59:44;4.00;;;2.58;;
5999;SDS011;3028;49.468;7.694;2023-03-21T03:01:57;4.22;;;3.20;;
5999;SDS011;3028;49.468;7.694;2023-03-21T03:03:59;4.45;;;3.05;;
5999;SDS011;3028;49.468;7.694;2023-03-21T03:06:01;5.00;;;2.88;;
5999;SDS011;3028;49.468;7.694;2023-03-21T03:13:12;5.20;;;3.67;;
5999;SDS011;3028;49.468;7.694;2023-03-21T03:15:23;7.47;;;3.63;;
5999;SDS011;3028;49.468;7.694;2023-03-21T03:17:38;10.63;;;3.50;;
5999;SDS011;3028;49.468;7.694;2023-03-21T03:22:22;4.72;;;3.72;;
5999;SDS011;3028;49.468;7.694;2023-03-21T03:26:50;5.45;;;3.30;;
5999;SDS011;3028;49.468;7.694;2023-03-21T03:28:55;7.25;;;2.50;;
5999;SDS011;3028;49.468;7.694;2023-03-21T03:30:59;4.57;;;2.97;;
5999;SDS011;3028;49.468;7.694;2023-03-21T03:33:10;4.38;;;2.60;;
5999;SDS011;3028;49.468;7.694;2023-03-21T03:35:12;3.47;;;2.88;;
5999;SDS011;3028;49.468;7.694;2023-03-21T03:37:17;3.72;;;2.80;;
5999;SDS011;3028;49.468;7.694;2023-03-21T03:39:21;3.25;;;2.95;;
5999;SDS011;3028;49.468;7.694;2023-03-21T03:41:30;4.05;;;2.80;;
5999;SDS011;3028;49.468;7.694;2023-03-21T03:43:55;4.32;;;3.17;;
5999;SDS011;3028;49.468;7.694;2023-03-21T03:46:04;2.78;;;2.58;;
5999;SDS011;3028;49.468;7.694;2023-03-21T03:48:14;3.50;;;2.20;;
5999;SDS011;3028;49.468;7.694;2023-03-21T03:52:37;2.13;;;2.03;;
5999;SDS011;3028;49.468;7.694;2023-03-21T03:54:55;2.65;;;2.45;;
5999;SDS011;3028;49.468;7.694;2023-03-21T03:56:57;3.05;;;2.15;;
5999;SDS011;3028;49.468;7.694;2023-03-21T03:59:00;2.13;;;1.90;;
5999;SDS011;3028;49.468;7.694;2023-03-21T04:01:02;2.90;;;2.38;;
5999;SDS011;3028;49.468;7.694;2023-03-21T04:03:04;6.22;;;2.85;;
5999;SDS011;3028;49.468;7.694;2023-03-21T04:05:07;6.18;;;2.40;;
5999;SDS011;3028;49.468;7.694;2023-03-21T04:07:09;2.45;;;2.25;;
5999;SDS011;3028;49.468;7.694;2023-03-21T04:09:11;2.85;;;2.40;;
5999;SDS011;3028;49.468;7.694;2023-03-21T04:11:25;4.55;;;2.95;;
5999;SDS011;3028;49.468;7.694;2023-03-21T04:13:28;1.98;;;1.77;;
5999;SDS011;3028;49.468;7.694;2023-03-21T04:15:29;3.80;;;3.22;;
5999;SDS011;3028;49.468;7.694;2023-03-21T04:17:31;4.53;;;2.10;;
5999;SDS011;3028;49.468;7.694;2023-03-21T04:19:33;2.47;;;2.28;;
5999;SDS011;3028;49.468;7.694;2023-03-21T04:21:35;4.30;;;2.53;;
5999;SDS011;3028;49.468;7.694;2023-03-21T04:23:37;3.00;;;2.30;;
5999;SDS011;3028;49.468;7.694;2023-03-21T04:25:39;3.33;;;2.97;;
5999;SDS011;3028;49.468;7.694;2023-03-21T04:27:56;6.55;;;2.55;;
5999;SDS011;3028;49.468;7.694;2023-03-21T04:29:58;4.25;;;3.47;;
5999;SDS011;3028;49.468;7.694;2023-03-21T04:32:00;3.88;;;3.55;;
5999;SDS011;3028;49.468;7.694;2023-03-21T04:34:03;7.22;;;3.10;;
5999;SDS011;3028;49.468;7.694;2023-03-21T04:36:10;4.88;;;3.13;;
5999;SDS011;3028;49.468;7.694;2023-03-21T04:38:25;3.28;;;3.00;;
5999;SDS011;3028;49.468;7.694;2023-03-21T04:40:30;4.60;;;3.08;;
5999;SDS011;3028;49.468;7.694;2023-03-21T04:42:33;3.67;;;3.38;;
5999;SDS011;3028;49.468;7.694;2023-03-21T04:44:35;5.18;;;3.53;;
5999;SDS011;3028;49.468;7.694;2023-03-21T04:46:37;3.88;;;3.40;;
5999;SDS011;3028;49.468;7.694;2023-03-21T04:48:39;5.40;;;2.90;;
5999;SDS011;3028;49.468;7.694;2023-03-21T04:50:41;4.25;;;3.33;;
5999;SDS011;3028;49.468;7.694;2023-03-21T04:52:43;3.15;;;2.60;;
5999;SDS011;3028;49.468;7.694;2023-03-21T04:54:45;4.13;;;3.72;;
5999;SDS011;3028;49.468;7.694;2023-03-21T04:56:49;2.88;;;2.30;;
5999;SDS011;3028;49.468;7.694;2023-03-21T04:58:52;2.80;;;2.50;;
5999;SDS011;3028;49.468;7.694;2023-03-21T05:00:54;3.35;;;2.85;;
5999;SDS011;3028;49.468;7.694;2023-03-21T05:02:57;3.33;;;3.03;;
5999;SDS011;3028;49.468;7.694;2023-03-21T05:05:00;3.83;;;3.33;;
5999;SDS011;3028;49.468;7.694;2023-03-21T05:07:02;4.85;;;2.92;;
5999;SDS011;3028;49.468;7.694;2023-03-21T05:09:04;4.63;;;2.97;;
5999;SDS011;3028;49.468;7.694;2023-03-21T05:11:07;4.40;;;2.90;;
5999;SDS011;3028;49.468;7.694;2023-03-21T05:13:09;3.05;;;2.65;;
5999;SDS011;3028;49.468;7.694;2023-03-21T05:15:11;2.90;;;2.67;;
5999;SDS011;3028;49.468;7.694;2023-03-21T05:17:14;6.50;;;3.10;;
5999;SDS011;3028;49.468;7.694;2023-03-21T05:19:27;5.28;;;3.08;;
5999;SDS011;3028;49.468;7.694;2023-03-21T05:21:35;3.25;;;2.40;;
5999;SDS011;3028;49.468;7.694;2023-03-21T05:23:43;4.80;;;3.33;;
5999;SDS011;3028;49.468;7.694;2023-03-21T05:25:45;3.78;;;2.92;;
5999;SDS011;3028;49.468;7.694;2023-03-21T05:27:47;3.35;;;2.67;;
5999;SDS011;3028;49.468;7.694;2023-03-21T05:29:54;3.33;;;2.40;;
5999;SDS011;3028;49.468;7.694;2023-03-21T05:31:56;2.70;;;2.50;;
5999;SDS011;3028;49.468;7.694;2023-03-21T05:33:58;5.00;;;3.15;;
5999;SDS011;3028;49.468;7.694;2023-03-21T05:36:00;4.35;;;2.40;;
5999;SDS011;3028;49.468;7.694;2023-03-21T05:38:01;4.18;;;2.85;;
5999;SDS011;3028;49.468;7.694;2023-03-21T05:40:04;4.45;;;2.45;;
5999;SDS011;3028;49.468;7.694;2023-03-21T05:42:07;3.75;;;2.78;;
5999;SDS011;3028;49.468;7.694;2023-03-21T05:44:09;2.92;;;2.63;;
5999;SDS011;3028;49.468;7.694;2023-03-21T05:46:11;5.35;;;3.22;;
5999;SDS011;3028;49.468;7.694;2023-03-21T05:48:13;4.13;;;2.65;;
5999;SDS011;3028;49.468;7.694;2023-03-21T05:50:14;6.78;;;4.13;;
5999;SDS011;3028;49.468;7.694;2023-03-21T05:52:16;3.85;;;3.55;;
5999;SDS011;3028;49.468;7.694;2023-03-21T05:54:18;4.38;;;2.72;;
5999;SDS011;3028;49.468;7.694;2023-03-21T05:56:20;3.42;;;3.10;;
5999;SDS011;3028;49.468;7.694;2023-03-21T05:58:22;3.38;;;3.05;;
5999;SDS011;3028;49.468;7.694;2023-03-21T06:00:23;3.13;;;2.78;;
5999;SDS011;3028;49.468;7.694;2023-03-21T06:02:25;4.68;;;3.20;;
5999;SDS011;3028;49.468;7.694;2023-03-21T06:04:27;4.07;;;3.13;;
5999;SDS011;3028;49.468;7.694;2023-03-21T06:06:29;3.72;;;3.35;;
5999;SDS011;3028;49.468;7.694;2023-03-21T06:08:31;7.15;;;3.30;;
5999;SDS011;3028;49.468;7.694;2023-03-21T06:10:33;4.57;;;3.30;;
5999;SDS011;3028;49.468;7.694;2023-03-21T06:12:38;6.93;;;3.55;;
5999;SDS011;3028;49.468;7.694;2023-03-21T06:14:40;3.45;;;2.28;;
5999;SDS011;3028;49.468;7.694;2023-03-21T06:16:42;3.28;;;3.08;;
5999;SDS011;3028;49.468;7.694;2023-03-21T06:18:46;3.33;;;3.03;;
5999;SDS011;3028;49.468;7.694;2023-03-21T06:20:53;3.05;;;2.30;;
5999;SDS011;3028;49.468;7.694;2023-03-21T06:22:56;3.50;;;2.35;;
5999;SDS011;3028;49.468;7.694;2023-03-21T06:25:05;3.97;;;3.35;;
5999;SDS011;3028;49.468;7.694;2023-03-21T06:27:10;5.80;;;3.15;;
5999;SDS011;3028;49.468;7.694;2023-03-21T06:29:12;5.75;;;3.50;;
5999;SDS011;3028;49.468;7.694;2023-03-21T06:31:14;3.80;;;3.42;;
5999;SDS011;3028;49.468;7.694;2023-03-21T06:33:19;4.43;;;3.47;;
5999;SDS011;3028;49.468;7.694;2023-03-21T06:35:21;6.47;;;4.35;;
5999;SDS011;3028;49.468;7.694;2023-03-21T06:37:23;5.00;;;4.60;;
5999;SDS011;3028;49.468;7.694;2023-03-21T06:39:26;8.35;;;5.63;;
5999;SDS011;3028;49.468;7.694;2023-03-21T06:41:28;8.20;;;5.18;;
5999;SDS011;3028;49.468;7.694;2023-03-21T06:43:30;4.38;;;4.00;;
5999;SDS011;3028;49.468;7.694;2023-03-21T06:45:32;6.05;;;4.80;;
5999;SDS011;3028;49.468;7.694;2023-03-21T06:47:34;10.02;;;5.55;;
5999;SDS011;3028;49.468;7.694;2023-03-21T06:49:35;5.70;;;4.93;;
5999;SDS011;3028;49.468;7.694;2023-03-21T06:51:37;4.60;;;4.07;;
5999;SDS011;3028;49.468;7.694;2023-03-21T06:53:39;5.57;;;4.95;;
5999;SDS011;3028;49.468;7.694;2023-03-21T06:55:42;5.25;;;4.70;;
5999;SDS011;3028;49.468;7.694;2023-03-21T06:57:44;4.78;;;4.18;;
5999;SDS011;3028;49.468;7.694;2023-03-21T06:59:48;6.60;;;5.30;;
5999;SDS011;3028;49.468;7.694;2023-03-21T07:01:51;6.70;;;4.65;;
5999;SDS011;3028;49.468;7.694;2023-03-21T07:03:54;5.10;;;4.60;;
5999;SDS011;3028;49.468;7.694;2023-03-21T07:05:57;7.30;;;5.03;;
5999;SDS011;3028;49.468;7.694;2023-03-21T07:07:59;5.40;;;4.53;;
5999;SDS011;3028;49.468;7.694;2023-03-21T07:10:02;6.07;;;4.57;;
5999;SDS011;3028;49.468;7.694;2023-03-21T07:12:04;5.93;;;4.78;;
5999;SDS011;3028;49.468;7.694;2023-03-21T07:14:06;7.35;;;4.63;;
5999;SDS011;3028;49.468;7.694;2023-03-21T07:16:08;4.40;;;3.90;;
5999;SDS011;3028;49.468;7.694;2023-03-21T07:18:10;8.75;;;4.47;;
5999;SDS011;3028;49.468;7.694;2023-03-21T07:20:11;10.48;;;5.22;;
5999;SDS011;3028;49.468;7.694;2023-03-21T07:22:14;5.30;;;4.68;;
5999;SDS011;3028;49.468;7.694;2023-03-21T07:24:16;5.05;;;4.65;;
5999;SDS011;3028;49.468;7.694;2023-03-21T07:26:17;5.30;;;4.50;;
5999;SDS011;3028;49.468;7.694;2023-03-21T07:28:19;6.22;;;4.65;;
5999;SDS011;3028;49.468;7.694;2023-03-21T07:30:21;6.38;;;4.57;;
5999;SDS011;3028;49.468;7.694;2023-03-21T07:32:23;8.70;;;3.92;;
5999;SDS011;3028;49.468;7.694;2023-03-21T07:34:30;6.35;;;3.95;;
5999;SDS011;3028;49.468;7.694;2023-03-21T07:36:33;9.93;;;5.00;;
5999;SDS011;3028;49.468;7.694;2023-03-21T07:38:35;6.00;;;4.38;;
5999;SDS011;3028;49.468;7.694;2023-03-21T07:40:36;5.05;;;4.65;;
5999;SDS011;3028;49.468;7.694;2023-03-21T07:42:39;7.68;;;4.28;;
5999;SDS011;3028;49.468;7.694;2023-03-21T07:44:41;4.80;;;4.43;;
5999;SDS011;3028;49.468;7.694;2023-03-21T07:46:43;7.50;;;4.10;;
5999;SDS011;3028;49.468;7.694;2023-03-21T07:48:55;5.60;;;4.70;;
5999;SDS011;3028;49.468;7.694;2023-03-21T07:51:00;6.43;;;4.10;;
5999;SDS011;3028;49.468;7.694;2023-03-21T07:53:02;5.07;;;4.57;;
5999;SDS011;3028;49.468;7.694;2023-03-21T07:55:07;5.95;;;4.68;;
5999;SDS011;3028;49.468;7.694;2023-03-21T07:57:18;7.32;;;4.88;;
5999;SDS011;3028;49.468;7.694;2023-03-21T07:59:23;6.50;;;4.30;;
5999;SDS011;3028;49.468;7.694;2023-03-21T08:01:25;10.60;;;4.82;;
5999;SDS011;3028;49.468;7.694;2023-03-21T08:03:27;9.73;;;5.45;;
5999;SDS011;3028;49.468;7.694;2023-03-21T08:05:33;6.47;;;5.72;;
5999;SDS011;3028;49.468;7.694;2023-03-21T08:07:47;5.30;;;3.15;;
5999;SDS011;3028;49.468;7.694;2023-03-21T08:09:49;3.97;;;3.67;;
5999;SDS011;3028;49.468;7.694;2023-03-21T08:11:50;9.02;;;4.13;;
5999;SDS011;3028;49.468;7.694;2023-03-21T08:13:52;7.07;;;4.78;;
5999;SDS011;3028;49.468;7.694;2023-03-21T08:15:55;5.85;;;4.80;;
5999;SDS011;3028;49.468;7.694;2023-03-21T08:17:58;5.13;;;4.60;;
5999;SDS011;3028;49.468;7.694;2023-03-21T08:20:07;10.13;;;4.97;;
5999;SDS011;3028;49.468;7.694;2023-03-21T08:22:12;5.05;;;4.63;;
5999;SDS011;3028;49.468;7.694;2023-03-21T08:24:14;8.40;;;5.07;;
5999;SDS011;3028;49.468;7.694;2023-03-21T08:26:16;9.05;;;3.95;;
5999;SDS011;3028;49.468;7.694;2023-03-21T08:28:18;5.97;;;4.57;;
5999;SDS011;3028;49.468;7.694;2023-03-21T08:30:23;6.10;;;4.45;;
5999;SDS011;3028;49.468;7.694;2023-03-21T08:32:27;5.47;;;4.80;;
5999;SDS011;3028;49.468;7.694;2023-03-21T08:34:33;7.60;;;4.72;;
5999;SDS011;3028;49.468;7.694;2023-03-21T08:36:35;7.85;;;4.88;;
5999;SDS011;3028;49.468;7.694;2023-03-21T08:38:37;6.82;;;4.97;;
5999;SDS011;3028;49.468;7.694;2023-03-21T08:40:39;5.82;;;5.03;;
5999;SDS011;3028;49.468;7.694;2023-03-21T08:42:44;7.30;;;5.32;;
5999;SDS011;3028;49.468;7.694;2023-03-21T08:44:58;12.45;;;5.05;;
5999;SDS011;3028;49.468;7.694;2023-03-21T08:46:59;4.05;;;3.40;;
5999;SDS011;3028;49.468;7.694;2023-03-21T08:49:01;5.30;;;3.90;;
5999;SDS011;3028;49.468;7.694;2023-03-21T08:51:03;8.48;;;4.55;;
5999;SDS011;3028;49.468;7.694;2023-03-21T08:53:24;7.20;;;4.93;;
5999;SDS011;3028;49.468;7.694;2023-03-21T08:55:29;5.85;;;4.20;;
5999;SDS011;3028;49.468;7.694;2023-03-21T08:57:33;7.20;;;4.45;;
5999;SDS011;3028;49.468;7.694;2023-03-21T08:59:35;6.55;;;4.25;;
5999;SDS011;3028;49.468;7.694;2023-03-21T09:01:37;8.02;;;5.07;;
5999;SDS011;3028;49.468;7.694;2023-03-21T09:03:38;4.70;;;4.30;;
5999;SDS011;3028;49.468;7.694;2023-03-21T09:05:40;8.60;;;4.18;;
5999;SDS011;3028;49.468;7.694;2023-03-21T09:07:42;5.32;;;4.43;;
5999;SDS011;3028;49.468;7.694;2023-03-21T09:09:45;6.82;;;4.40;;
5999;SDS011;3028;49.468;7.694;2023-03-21T09:11:58;4.85;;;4.32;;
5999;SDS011;3028;49.468;7.694;2023-03-21T09:14:00;4.63;;;4.22;;
5999;SDS011;3028;49.468;7.694;2023-03-21T09:16:02;5.10;;;4.60;;
5999;SDS011;3028;49.468;7.694;2023-03-21T09:18:05;6.90;;;4.00;;
5999;SDS011;3028;49.468;7.694;2023-03-21T09:20:13;4.90;;;4.28;;
5999;SDS011;3028;49.468;7.694;2023-03-21T09:22:31;5.07;;;3.97;;
5999;SDS011;3028;49.468;7.694;2023-03-21T09:24:33;6.20;;;4.80;;
5999;SDS011;3028;49.468;7.694;2023-03-21T09:26:34;5.85;;;3.78;;
5999;SDS011;3028;49.468;7.694;2023-03-21T09:28:37;5.95;;;4.22;;
5999;SDS011;3028;49.468;7.694;2023-03-21T09:30:40;8.90;;;4.47;;
5999;SDS011;3028;49.468;7.694;2023-03-21T09:32:42;4.45;;;4.05;;
5999;SDS011;3028;49.468;7.694;2023-03-21T09:34:49;5.72;;;4.28;;
5999;SDS011;3028;49.468;7.694;2023-03-21T09:36:51;7.30;;;4.47;;
5999;SDS011;3028;49.468;7.694;2023-03-21T09:38:56;4.53;;;4.00;;
5999;SDS011;3028;49.468;7.694;2023-03-21T09:43:35;4.53;;;3.45;;
5999;SDS011;3028;49.468;7.694;2023-03-21T09:45:59;5.38;;;3.78;;
5999;SDS011;3028;49.468;7.694;2023-03-21T09:48:11;4.05;;;3.63;;
5999;SDS011;3028;49.468;7.694;2023-03-21T09:50:23;4.47;;;3.95;;
5999;SDS011;3028;49.468;7.694;2023-03-21T09:54:54;6.47;;;4.07;;
5999;SDS011;3028;49.468;7.694;2023-03-21T09:57:03;9.25;;;4.38;;
5999;SDS011;3028;49.468;7.694;2023-03-21T09:59:22;6.18;;;4.03;;
5999;SDS011;3028;49.468;7.694;2023-03-21T10:01:34;4.78;;;3.35;;
5999;SDS011;3028;49.468;7.694;2023-03-21T10:03:42;16.02;;;3.92;;
5999;SDS011;3028;49.468;7.694;2023-03-21T10:05:45;9.35;;;3.70;;
5999;SDS011;3028;49.468;7.694;2023-03-21T10:07:51;4.93;;;3.45;;
5999;SDS011;3028;49.468;7.694;2023-03-21T10:09:54;4.55;;;3.83;;
5999;SDS011;3028;49.468;7.694;2023-03-21T10:11:59;6.10;;;3.67;;
5999;SDS011;3028;49.468;7.694;2023-03-21T10:14:21;5.07;;;4.05;;
5999;SDS011;3028;49.468;7.694;2023-03-21T10:16:41;3.33;;;2.78;;
5999;SDS011;3028;49.468;7.694;2023-03-21T10:18:45;5.47;;;3.10;;
5999;SDS011;3028;49.468;7.694;2023-03-21T10:20:48;5.22;;;3.72;;
5999;SDS011;3028;49.468;7.694;2023-03-21T10:22:53;3.67;;;3.17;;
5999;SDS011;3028;49.468;7.694;2023-03-21T10:24:55;3.63;;;3.20;;
5999;SDS011;3028;49.468;7.694;2023-03-21T10:26:57;5.93;;;3.63;;
5999;SDS011;3028;49.468;7.694;2023-03-21T10:29:00;3.90;;;3.47;;
5999;SDS011;3028;49.468;7.694;2023-03-21T10:31:03;6.38;;;3.22;;
5999;SDS011;3028;49.468;7.694;2023-03-21T10:33:10;5.00;;;3.55;;
5999;SDS011;3028;49.468;7.694;2023-03-21T10:35:15;3.65;;;3.35;;
5999;SDS011;3028;49.468;7.694;2023-03-21T10:37:17;5.32;;;3.55;;
5999;SDS011;3028;49.468;7.694;2023-03-21T10:41:36;5.13;;;3.78;;
5999;SDS011;3028;49.468;7.694;2023-03-21T10:43:43;5.15;;;3.33;;
5999;SDS011;3028;49.468;7.694;2023-03-21T10:45:46;3.50;;;3.20;;
5999;SDS011;3028;49.468;7.694;2023-03-21T10:47:49;4.50;;;2.63;;
5999;SDS011;3028;49.468;7.694;2023-03-21T10:49:52;4.15;;;2.92;;
5999;SDS011;3028;49.468;7.694;2023-03-21T10:52:09;3.13;;;2.35;;
5999;SDS011;3028;49.468;7.694;2023-03-21T10:54:18;2.47;;;2.00;;
5999;SDS011;3028;49.468;7.694;2023-03-21T10:56:25;1.88;;;1.77;;
5999;SDS011;3028;49.468;7.694;2023-03-21T10:58:29;3.38;;;2.63;;
5999;SDS011;3028;49.468;7.694;2023-03-21T11:00:36;2.17;;;1.83;;
5999;SDS011;3028;49.468;7.694;2023-03-21T11:02:40;3.20;;;2.40;;
5999;SDS011;3028;49.468;7.694;2023-03-21T11:04:43;4.78;;;2.30;;
5999;SDS011;3028;49.468;7.694;2023-03-21T11:06:50;4.60;;;2.60;;
5999;SDS011;3028;49.468;7.694;2023-03-21T11:11:09;3.53;;;2.25;;
5999;SDS011;3028;49.468;7.694;2023-03-21T11:13:16;4.57;;;2.35;;
5999;SDS011;3028;49.468;7.694;2023-03-21T11:15:24;3.95;;;2.45;;
5999;SDS011;3028;49.468;7.694;2023-03-21T11:17:28;2.25;;;2.05;;
5999;SDS011;3028;49.468;7.694;2023-03-21T11:19:32;2.35;;;1.85;;
5999;SDS011;3028;49.468;7.694;2023-03-21T11:21:35;2.22;;;2.08;;
5999;SDS011;3028;49.468;7.694;2023-03-21T11:23:41;2.88;;;2.40;;
5999;SDS011;3028;49.468;7.694;2023-03-21T11:25:47;2.45;;;2.10;;
5999;SDS011;3028;49.468;7.694;2023-03-21T11:27:53;2.92;;;2.08;;
5999;SDS011;3028;49.468;7.694;2023-03-21T11:29:56;2.80;;;1.77;;
5999;SDS011;3028;49.468;7.694;2023-03-21T11:32:42;2.90;;;2.30;;
5999;SDS011;3028;49.468;7.694;2023-03-21T11:34:25;2.30;;;2.10;;
5999;SDS011;3028;49.468;7.694;2023-03-21T11:36:33;2.67;;;2.25;;
5999;SDS011;3028;49.468;7.694;2023-03-21T11:38:39;2.95;;;2.35;;
5999;SDS011;3028;49.468;7.694;2023-03-21T11:40:40;2.88;;;1.77;;
5999;SDS011;3028;49.468;7.694;2023-03-21T11:42:55;2.90;;;2.30;;
5999;SDS011;3028;49.468;7.694;2023-03-21T11:45:20;2.28;;;2.08;;
5999;SDS011;3028;49.468;7.694;2023-03-21T11:47:23;2.95;;;2.00;;
5999;SDS011;3028;49.468;7.694;2023-03-21T11:49:25;2.33;;;2.13;;
5999;SDS011;3028;49.468;7.694;2023-03-21T11:51:32;2.53;;;2.33;;
5999;SDS011;3028;49.468;7.694;2023-03-21T12:00:28;2.15;;;2.05;;
5999;SDS011;3028;49.468;7.694;2023-03-21T12:05:18;4.32;;;2.38;;
5999;SDS011;3028;49.468;7.694;2023-03-21T12:17:22;3.10;;;2.80;;
5999;SDS011;3028;49.468;7.694;2023-03-21T12:19:42;3.35;;;3.08;;
5999;SDS011;3028;49.468;7.694;2023-03-21T12:21:55;3.67;;;2.97;;
5999;SDS011;3028;49.468;7.694;2023-03-21T12:24:21;5.03;;;3.85;;
5999;SDS011;3028;49.468;7.694;2023-03-21T12:26:27;3.78;;;3.47;;
5999;SDS011;3028;49.468;7.694;2023-03-21T12:38:40;4.55;;;3.95;;
5999;SDS011;3028;49.468;7.694;2023-03-21T12:42:56;3.63;;;3.05;;
5999;SDS011;3028;49.468;7.694;2023-03-21T12:45:28;4.22;;;3.75;;
5999;SDS011;3028;49.468;7.694;2023-03-21T12:47:52;3.25;;;2.90;;
5999;SDS011;3028;49.468;7.694;2023-03-21T12:50:31;3.22;;;2.88;;
5999;SDS011;3028;49.468;7.694;2023-03-21T12:52:41;5.03;;;3.80;;
5999;SDS011;3028;49.468;7.694;2023-03-21T12:55:19;4.45;;;3.28;;
5999;SDS011;3028;49.468;7.694;2023-03-21T12:57:41;6.88;;;5.20;;
5999;SDS011;3028;49.468;7.694;2023-03-21T13:00:13;4.65;;;4.15;;
5999;SDS011;3028;49.468;7.694;2023-03-21T13:02:32;4.20;;;3.35;;
5999;SDS011;3028;49.468;7.694;2023-03-21T13:04:58;3.88;;;3.58;;
5999;SDS011;3028;49.468;7.694;2023-03-21T13:07:02;6.40;;;4.18;;
5999;SDS011;3028;49.468;7.694;2023-03-21T13:09:15;5.32;;;3.67;;
5999;SDS011;3028;49.468;7.694;2023-03-21T13:11:35;4.18;;;3.65;;
5999;SDS011;3028;49.468;7.694;2023-03-21T13:13:41;10.05;;;4.40;;
5999;SDS011;3028;49.468;7.694;2023-03-21T13:20:25;4.80;;;3.63;;
5999;SDS011;3028;49.468;7.694;2023-03-21T13:22:34;3.85;;;3.50;;
5999;SDS011;3028;49.468;7.694;2023-03-21T13:24:40;4.30;;;4.00;;
5999;SDS011;3028;49.468;7.694;2023-03-21T13:27:36;5.13;;;4.55;;
5999;SDS011;3028;49.468;7.694;2023-03-21T13:29:23;4.55;;;4.15;;
5999;SDS011;3028;49.468;7.694;2023-03-21T13:31:32;7.82;;;5.20;;
5999;SDS011;3028;49.468;7.694;2023-03-21T13:33:52;5.47;;;4.93;;
5999;SDS011;3028;49.468;7.694;2023-03-21T13:35:59;5.53;;;5.03;;
5999;SDS011;3028;49.468;7.694;2023-03-21T13:42:49;5.78;;;5.20;;
5999;SDS011;3028;49.468;7.694;2023-03-21T13:44:55;5.35;;;4.88;;
5999;SDS011;3028;49.468;7.694;2023-03-21T13:47:03;4.60;;;4.25;;
5999;SDS011;3028;49.468;7.694;2023-03-21T13:51:10;4.50;;;4.10;;
5999;SDS011;3028;49.468;7.694;2023-03-21T13:55:19;5.25;;;4.78;;
5999;SDS011;3028;49.468;7.694;2023-03-21T13:59:51;6.03;;;5.05;;
5999;SDS011;3028;49.468;7.694;2023-03-21T14:04:32;5.60;;;4.82;;
5999;SDS011;3028;49.468;7.694;2023-03-21T14:06:52;9.00;;;4.55;;
5999;SDS011;3028;49.468;7.694;2023-03-21T14:08:58;4.53;;;4.22;;
5999;SDS011;3028;49.468;7.694;2023-03-21T14:11:02;5.10;;;4.70;;
5999;SDS011;3028;49.468;7.694;2023-03-21T14:13:07;5.35;;;4.45;;
5999;SDS011;3028;49.468;7.694;2023-03-21T14:15:18;4.90;;;4.50;;
5999;SDS011;3028;49.468;7.694;2023-03-21T14:17:28;5.30;;;4.80;;
5999;SDS011;3028;49.468;7.694;2023-03-21T14:19:31;5.45;;;4.95;;
5999;SDS011;3028;49.468;7.694;2023-03-21T14:21:34;6.53;;;5.82;;
5999;SDS011;3028;49.468;7.694;2023-03-21T14:23:37;4.05;;;3.75;;
5999;SDS011;3028;49.468;7.694;2023-03-21T14:25:39;4.88;;;4.43;;
5999;SDS011;3028;49.468;7.694;2023-03-21T14:27:49;4.80;;;4.30;;
5999;SDS011;3028;49.468;7.694;2023-03-21T14:29:53;5.38;;;4.90;;
5999;SDS011;3028;49.468;7.694;2023-03-21T14:31:55;5.78;;;5.22;;
5999;SDS011;3028;49.468;7.694;2023-03-21T14:33:58;5.55;;;4.53;;
5999;SDS011;3028;49.468;7.694;2023-03-21T14:36:03;6.72;;;5.03;;
5999;SDS011;3028;49.468;7.694;2023-03-21T14:38:16;6.47;;;5.75;;